sensor_id;sensor_type;location;lat;lon;timestamp;pressure;altitude;pressure_sealevel;temperature;humidity
69593;BME280;56796;50.122;14.468;2023-02-19T00:11:15;979.53;;;8.99;88.09
69593;BME280;56796;50.122;14.468;2023-02-19T00:30:39;979.5;;;8.64;91.38
69593;BME280;56796;50.122;14.468;2023-02-19T00:50:04;979.42;;;8.57;94.33
69593;BME280;56796;50.122;14.468;2023-02-19T01:09:30;979.3;;;8.47;94.34
69593;BME280;56796;50.122;14.468;2023-02-19T01:28:56;979.06;;;8.5;93.04
69593;BME280;56796;50.122;14.468;2023-02-19T01:48:22;978.63;;;8.6;92.05
69593;BME280;56796;50.122;14.468;2023-02-19T02:07:48;978.46;;;8.62;92.07
69593;BME280;56796;50.122;14.468;2023-02-19T02:27:19;978.15;;;8.7;91.94
69593;BME280;56796;50.122;14.468;2023-02-19T02:46:41;977.63;;;8.68;92.57
69593;BME280;56796;50.122;14.468;2023-02-19T03:06:07;977.49;;;8.64;92.77
69593;BME280;56796;50.122;14.468;2023-02-19T03:25:34;977.07;;;8.6;93.05
69593;BME280;56796;50.122;14.468;2023-02-19T03:45:06;976.9;;;8.74;92.4
69593;BME280;56796;50.122;14.468;2023-02-19T04:04:29;977.11;;;8.82;91.6
69593;BME280;56796;50.122;14.468;2023-02-19T04:23:54;976.87;;;8.85;91.07
69593;BME280;56796;50.122;14.468;2023-02-19T04:43:21;976.69;;;8.93;90.32
69593;BME280;56796;50.122;14.468;2023-02-19T05:02:46;976.53;;;9.1;89.14
69593;BME280;56796;50.122;14.468;2023-02-19T05:22:13;976.28;;;9.08;89.2
69593;BME280;56796;50.122;14.468;2023-02-19T05:41:42;976.36;;;9.16;88.77
69593;BME280;56796;50.122;14.468;2023-02-19T06:01:01;976.33;;;9.13;88.94
69593;BME280;56796;50.122;14.468;2023-02-19T06:20:28;976.38;;;9.22;88.39
69593;BME280;56796;50.122;14.468;2023-02-19T06:39:54;976.32;;;9.35;87.27
69593;BME280;56796;50.122;14.468;2023-02-19T06:59:21;976.39;;;9.62;85.41
69593;BME280;56796;50.122;14.468;2023-02-19T07:18:47;976.66;;;9.71;84.56
69593;BME280;56796;50.122;14.468;2023-02-19T07:38:17;976.96;;;9.82;83.6
69593;BME280;56796;50.122;14.468;2023-02-19T07:57:36;977.26;;;9.96;84.22
69593;BME280;56796;50.122;14.468;2023-02-19T08:17:03;977.59;;;9.34;88.82
69593;BME280;56796;50.122;14.468;2023-02-19T08:36:26;977.75;;;8.64;95.24
69593;BME280;56796;50.122;14.468;2023-02-19T08:55:52;977.71;;;8.85;97.15
69593;BME280;56796;50.122;14.468;2023-02-19T09:15:19;978.2;;;9.07;94.34
69593;BME280;56796;50.122;14.468;2023-02-19T09:34:45;978.39;;;9.14;92.61
69593;BME280;56796;50.122;14.468;2023-02-19T09:54:13;978.48;;;9.18;90.28
69593;BME280;56796;50.122;14.468;2023-02-19T10:13:40;978.8;;;9.3;87.85
69593;BME280;56796;50.122;14.468;2023-02-19T10:33:08;979.05;;;9.06;89.95
69593;BME280;56796;50.122;14.468;2023-02-19T10:52:26;979.57;;;9.03;88.03
69593;BME280;56796;50.122;14.468;2023-02-19T11:11:52;980.04;;;8.27;90.76
69593;BME280;56796;50.122;14.468;2023-02-19T11:31:22;980.27;;;8.21;96.08
69593;BME280;56796;50.122;14.468;2023-02-19T11:50:50;980.58;;;7.65;94.48
69593;BME280;56796;50.122;14.468;2023-02-19T12:10:10;980.88;;;7.64;90.73
69593;BME280;56796;50.122;14.468;2023-02-19T12:29:38;981.21;;;7.24;88.19
69593;BME280;56796;50.122;14.468;2023-02-19T12:49:00;981.59;;;6.77;89.87
69593;BME280;56796;50.122;14.468;2023-02-19T13:08:22;981.89;;;6.16;82.23
69593;BME280;56796;50.122;14.468;2023-02-19T13:27:50;982.04;;;6.15;82.11
69593;BME280;56796;50.122;14.468;2023-02-19T14:26:04;982.9;;;6.22;81.37
69593;BME280;56796;50.122;14.468;2023-02-19T14:45:29;983.05;;;6.08;82.82
69593;BME280;56796;50.122;14.468;2023-02-19T15:04:57;983.25;;;6.25;82.39
69593;BME280;56796;50.122;14.468;2023-02-19T15:24:20;983.61;;;5.93;83.36
69593;BME280;56796;50.122;14.468;2023-02-19T15:43:46;983.74;;;6.04;83.38
69593;BME280;56796;50.122;14.468;2023-02-19T16:03:13;983.95;;;5.73;82.57
69593;BME280;56796;50.122;14.468;2023-02-19T16:22:39;984.19;;;5.47;83.38
69593;BME280;56796;50.122;14.468;2023-02-19T17:01:26;984.85;;;4.82;84.13
69593;BME280;56796;50.122;14.468;2023-02-19T17:20:53;985.14;;;4.61;81.97
69593;BME280;56796;50.122;14.468;2023-02-19T17:40:18;985.49;;;4.34;81.11
69593;BME280;56796;50.122;14.468;2023-02-19T17:59:41;985.61;;;4.21;79.87
69593;BME280;56796;50.122;14.468;2023-02-19T18:19:06;986.17;;;3.83;81.07
69593;BME280;56796;50.122;14.468;2023-02-19T18:38:31;986.54;;;3.68;82
69593;BME280;56796;50.122;14.468;2023-02-19T18:57:56;986.57;;;3.7;80.48
69593;BME280;56796;50.122;14.468;2023-02-19T19:17:21;986.72;;;3.61;80.31
69593;BME280;56796;50.122;14.468;2023-02-19T19:36:46;986.95;;;3.41;80.87
69593;BME280;56796;50.122;14.468;2023-02-19T19:56:12;987.04;;;3.25;81.61
69593;BME280;56796;50.122;14.468;2023-02-19T20:15:38;986.99;;;3.08;82.27
69593;BME280;56796;50.122;14.468;2023-02-19T20:35:03;987.19;;;2.84;83.37
69593;BME280;56796;50.122;14.468;2023-02-19T20:54:28;987.26;;;2.65;84.43
69593;BME280;56796;50.122;14.468;2023-02-19T21:13:53;987.42;;;2.45;85.56
69593;BME280;56796;50.122;14.468;2023-02-19T21:33:19;987.52;;;2.55;86.24
69593;BME280;56796;50.122;14.468;2023-02-19T21:52:44;987.51;;;2.75;85.79
69593;BME280;56796;50.122;14.468;2023-02-19T22:12:11;987.67;;;2.56;86.5
69593;BME280;56796;50.122;14.468;2023-02-19T22:31:36;987.74;;;2.63;86.82
69593;BME280;56796;50.122;14.468;2023-02-19T22:51:01;987.56;;;2.8;86.43
69593;BME280;56796;50.122;14.468;2023-02-19T23:10:28;987.6;;;3;85.87
69593;BME280;56796;50.122;14.468;2023-02-19T23:29:54;987.45;;;2.99;86.14
69593;BME280;56796;50.122;14.468;2023-02-19T23:49:20;987.34;;;2.99;87.39
